Time;durP1;ratioP1;P1;durP2;ratioP2;P2;SDS_P1;SDS_P2;PMS_P1;PMS_P2;Temp;Humidity;BMP_temperature;BMP_pressure;BME280_temperature;BME280_humidity;BME280_pressure;Samples;Min_cycle;Max_cycle;Signal;HPM_P1;HPM_P2
2021/07/25 00:02:15;;;;;;;6.80;6.20;;;29.40;48.30;;;;;;5023934;28;20475;-76
2021/07/25 00:04:43;;;;;;;6.40;5.90;;;29.40;48.40;;;;;;5023671;28;20451;-76
2021/07/25 00:07:11;;;;;;;6.00;5.50;;;29.40;48.50;;;;;;5023719;28;20474;-76
2021/07/25 00:09:43;;;;;;;6.40;5.83;;;29.30;48.40;;;;;;5023377;28;20436;-76
2021/07/25 00:12:11;;;;;;;6.73;6.10;;;29.30;48.40;;;;;;5023383;28;20422;-76
2021/07/25 00:14:41;;;;;;;6.33;5.73;;;29.30;48.40;;;;;;5022789;28;20462;-76
2021/07/25 00:17:09;;;;;;;5.90;5.43;;;29.30;48.40;;;;;;5023673;28;20549;-76
2021/07/25 00:19:37;;;;;;;6.17;5.60;;;29.30;48.50;;;;;;5024896;28;20443;-76
2021/07/25 00:22:05;;;;;;;6.50;6.00;;;29.30;48.50;;;;;;5027861;28;20436;-76
2021/07/25 00:24:34;;;;;;;6.10;5.60;;;29.30;48.50;;;;;;5027468;28;20497;-76
2021/07/25 00:27:03;;;;;;;6.83;6.23;;;29.20;48.50;;;;;;5027381;28;20450;-76
2021/07/25 00:29:31;;;;;;;6.80;6.20;;;29.20;48.60;;;;;;5027692;28;20447;-76
2021/07/25 00:32:01;;;;;;;7.10;6.40;;;29.20;48.60;;;;;;5026894;28;20470;-76
2021/07/25 00:34:32;;;;;;;6.90;6.30;;;29.20;48.60;;;;;;5026996;28;20435;-76
2021/07/25 00:37:01;;;;;;;6.47;5.90;;;29.20;48.60;;;;;;5027201;28;20439;-76
2021/07/25 00:39:29;;;;;;;6.27;5.77;;;29.20;48.70;;;;;;5027456;28;20417;-76
2021/07/25 00:41:56;;;;;;;6.30;5.80;;;29.20;48.70;;;;;;5027757;28;20534;-76
2021/07/25 00:44:24;;;;;;;7.10;6.20;;;29.20;48.70;;;;;;5026746;28;20545;-76
2021/07/25 00:46:56;;;;;;;6.47;5.87;;;29.20;48.70;;;;;;5027102;28;20443;-76
2021/07/25 00:49:25;;;;;;;6.40;5.80;;;29.10;48.70;;;;;;5027076;28;20447;-76
2021/07/25 00:51:53;;;;;;;7.83;7.10;;;29.10;48.70;;;;;;5027662;28;20443;-76
2021/07/25 00:54:21;;;;;;;5.90;5.40;;;29.10;48.80;;;;;;5027083;28;20435;-76
2021/07/25 00:56:49;;;;;;;6.60;6.00;;;29.10;48.80;;;;;;5027634;28;20426;-76
2021/07/25 00:59:17;;;;;;;6.13;5.63;;;29.10;48.80;;;;;;5027302;28;20529;-76
2021/07/25 01:01:46;;;;;;;6.10;5.60;;;29.10;48.80;;;;;;5027338;28;20533;-76
2021/07/25 01:04:21;;;;;;;6.07;5.67;;;29.10;48.80;;;;;;5026800;28;20475;-76
2021/07/25 01:07:00;;;;;;;6.70;6.00;;;29.00;48.80;;;;;;5027008;28;20533;-76
2021/07/25 01:09:32;;;;;;;6.60;6.00;;;29.10;48.90;;;;;;5030340;28;20538;-76
2021/07/25 01:12:05;;;;;;;6.43;5.90;;;29.00;48.90;;;;;;5025806;28;20440;-76
2021/07/25 01:14:34;;;;;;;6.20;5.70;;;29.00;48.90;;;;;;5025422;28;20540;-76
2021/07/25 01:17:28;;;;;;;6.93;6.33;;;29.00;48.90;;;;;;5025802;28;20521;-76
2021/07/25 01:19:57;;;;;;;8.27;6.60;;;29.00;48.90;;;;;;5025370;28;20511;-76
2021/07/25 01:22:25;;;;;;;6.20;5.70;;;29.00;49.00;;;;;;5025360;28;20486;-76
2021/07/25 01:24:58;;;;;;;5.97;5.50;;;29.00;49.00;;;;;;5025239;28;20424;-76
2021/07/25 01:27:29;;;;;;;6.27;5.77;;;29.00;49.00;;;;;;5025788;28;20507;-76
2021/07/25 01:29:58;;;;;;;7.33;6.60;;;29.00;49.00;;;;;;5026499;28;20542;-76
2021/07/25 01:32:26;;;;;;;7.40;6.70;;;28.90;48.90;;;;;;5026620;28;20491;-76
2021/07/25 01:34:55;;;;;;;6.07;5.57;;;28.90;49.00;;;;;;5026019;28;20427;-76
2021/07/25 01:37:24;;;;;;;7.13;6.53;;;28.90;49.10;;;;;;5023150;28;20447;-75
2021/07/25 01:39:52;;;;;;;7.03;6.40;;;28.90;49.10;;;;;;5026202;28;20434;-76
2021/07/25 01:42:28;;;;;;;7.50;6.70;;;28.90;49.10;;;;;;5031124;28;20460;-75
2021/07/25 01:44:56;;;;;;;8.60;7.80;;;28.90;49.30;;;;;;5042330;28;20444;-75
2021/07/25 01:47:24;;;;;;;7.87;7.17;;;28.90;49.40;;;;;;5028742;28;20443;-75
2021/07/25 01:49:52;;;;;;;9.00;8.10;;;28.90;49.40;;;;;;5040864;28;20534;-75
2021/07/25 01:52:19;;;;;;;8.67;7.73;;;28.80;49.60;;;;;;5032773;28;20550;-75
2021/07/25 01:54:49;;;;;;;8.20;7.13;;;28.80;49.70;;;;;;5033798;28;20526;-75
2021/07/25 01:57:17;;;;;;;8.20;7.13;;;28.80;49.60;;;;;;5035484;28;20482;-75
2021/07/25 01:59:45;;;;;;;8.33;7.53;;;28.80;49.70;;;;;;5024866;28;20554;-75
2021/07/25 02:02:13;;;;;;;9.00;8.10;;;28.80;49.80;;;;;;5005132;28;20460;-75
2021/07/25 02:04:41;;;;;;;9.43;8.43;;;28.80;49.90;;;;;;5004740;28;20534;-75
2021/07/25 02:07:08;;;;;;;9.23;8.00;;;28.70;49.90;;;;;;5006246;28;20531;-74
2021/07/25 02:09:36;;;;;;;8.60;7.80;;;28.70;50.00;;;;;;5005913;28;20512;-75
2021/07/25 02:12:06;;;;;;;8.13;7.30;;;28.70;50.10;;;;;;5005327;28;20457;-75
2021/07/25 02:14:34;;;;;;;8.50;7.63;;;28.70;50.00;;;;;;5005949;28;20432;-75
2021/07/25 02:17:02;;;;;;;9.10;8.20;;;28.70;50.10;;;;;;5005702;28;20498;-75
2021/07/25 02:19:30;;;;;;;8.77;7.87;;;28.70;50.10;;;;;;5005868;28;20531;-75
2021/07/25 02:21:58;;;;;;;8.67;7.37;;;28.60;50.10;;;;;;5005788;28;20539;-75
2021/07/25 02:24:26;;;;;;;9.40;8.50;;;28.70;50.20;;;;;;5005456;28;20472;-74
2021/07/25 02:26:53;;;;;;;10.37;7.97;;;28.70;50.20;;;;;;5005526;28;20486;-75
2021/07/25 02:29:23;;;;;;;9.40;8.50;;;28.60;50.20;;;;;;5005934;28;20441;-75
2021/07/25 02:31:50;;;;;;;10.30;8.30;;;28.60;50.30;;;;;;5005296;28;20415;-74
2021/07/25 02:34:18;;;;;;;10.43;9.23;;;28.60;50.40;;;;;;5005908;28;20464;-75
2021/07/25 02:36:46;;;;;;;9.60;8.70;;;28.60;50.40;;;;;;5005646;28;20559;-74
2021/07/25 02:39:14;;;;;;;10.63;8.90;;;28.60;50.40;;;;;;5005394;28;20479;-74
2021/07/25 02:41:42;;;;;;;9.90;8.90;;;28.60;50.50;;;;;;5004269;28;20547;-75
2021/07/25 02:44:10;;;;;;;9.90;8.90;;;28.60;50.50;;;;;;5005227;28;20557;-74
2021/07/25 02:46:39;;;;;;;11.20;9.70;;;28.60;50.60;;;;;;5005560;28;20456;-74
2021/07/25 02:49:07;;;;;;;11.43;9.60;;;28.50;50.60;;;;;;5005097;28;20444;-74
2021/07/25 02:51:35;;;;;;;10.77;9.67;;;28.50;50.80;;;;;;5005254;28;20480;-74
2021/07/25 02:54:03;;;;;;;9.97;8.97;;;28.50;50.90;;;;;;5005444;28;20507;-74
2021/07/25 02:56:30;;;;;;;10.33;9.00;;;28.50;50.80;;;;;;5005208;28;20548;-74
2021/07/25 02:58:58;;;;;;;12.50;8.37;;;28.50;50.90;;;;;;5005481;28;20484;-74
2021/07/25 03:01:26;;;;;;;9.63;8.70;;;28.50;50.90;;;;;;5005621;28;20440;-74
2021/07/25 03:03:56;;;;;;;9.97;8.50;;;28.50;50.90;;;;;;5005103;28;20476;-74
2021/07/25 03:06:24;;;;;;;11.00;9.10;;;28.40;50.80;;;;;;5004880;28;20476;-75
2021/07/25 03:08:51;;;;;;;11.43;9.23;;;28.40;50.90;;;;;;5004927;28;20480;-74
2021/07/25 03:11:21;;;;;;;9.57;8.57;;;28.40;50.90;;;;;;5004466;28;20444;-75
2021/07/25 03:13:49;;;;;;;10.07;9.07;;;28.40;51.10;;;;;;5005312;28;20510;-74
2021/07/25 03:16:17;;;;;;;11.20;10.10;;;28.40;51.20;;;;;;5005058;28;20451;-74
2021/07/25 03:18:45;;;;;;;10.17;9.10;;;28.40;51.30;;;;;;5004523;28;20437;-75
2021/07/25 03:21:14;;;;;;;8.67;7.87;;;28.40;51.30;;;;;;5004638;28;20478;-74
2021/07/25 03:23:42;;;;;;;10.60;8.20;;;28.40;51.30;;;;;;5004854;28;20475;-74
2021/07/25 03:26:10;;;;;;;8.87;7.93;;;28.30;51.30;;;;;;5005085;28;20460;-74
2021/07/25 03:28:37;;;;;;;8.87;7.97;;;28.30;51.40;;;;;;5005063;28;20502;-74
2021/07/25 03:31:05;;;;;;;8.90;8.00;;;28.30;51.60;;;;;;5004554;28;20440;-74
2021/07/25 03:33:33;;;;;;;9.00;8.20;;;28.30;51.60;;;;;;5004613;28;20453;-74
2021/07/25 03:36:01;;;;;;;8.87;8.07;;;28.30;51.80;;;;;;5004226;28;20419;-74
2021/07/25 03:38:30;;;;;;;9.20;8.23;;;28.30;51.70;;;;;;5004856;28;20415;-74
2021/07/25 03:41:01;;;;;;;9.80;7.90;;;28.20;51.70;;;;;;5004603;28;20523;-74
2021/07/25 03:43:29;;;;;;;7.87;7.20;;;28.20;51.90;;;;;;5004801;28;20498;-74
2021/07/25 03:45:57;;;;;;;7.70;7.00;;;28.20;51.90;;;;;;5004508;28;20563;-74
2021/07/25 03:48:25;;;;;;;8.50;7.70;;;28.20;52.00;;;;;;5004614;28;20434;-73
2021/07/25 03:50:55;;;;;;;8.30;7.40;;;28.20;52.10;;;;;;5004968;28;20531;-73
2021/07/25 03:53:23;;;;;;;8.40;7.53;;;28.20;52.20;;;;;;5004235;28;20440;-74
2021/07/25 03:55:52;;;;;;;8.23;7.53;;;28.20;52.30;;;;;;5003959;28;20521;-74
2021/07/25 03:58:20;;;;;;;9.60;6.77;;;28.10;52.30;;;;;;5004302;28;20445;-73
2021/07/25 04:00:48;;;;;;;8.27;7.47;;;28.10;52.20;;;;;;5006952;28;20562;-76
2021/07/25 04:03:15;;;;;;;7.77;7.07;;;28.10;52.30;;;;;;5018698;28;20435;-76
2021/07/25 04:05:43;;;;;;;8.87;6.60;;;28.10;52.40;;;;;;5029441;28;20573;-75
2021/07/25 04:08:11;;;;;;;10.43;7.23;;;28.10;52.40;;;;;;5031510;28;20474;-76
2021/07/25 04:10:41;;;;;;;7.60;6.80;;;28.10;52.40;;;;;;5023515;28;20431;-76
2021/07/25 04:13:11;;;;;;;8.53;7.23;;;28.10;52.40;;;;;;5023978;28;20406;-76
2021/07/25 04:15:39;;;;;;;11.40;7.20;;;28.10;52.40;;;;;;5023618;28;20539;-76
2021/07/25 04:18:07;;;;;;;7.77;7.07;;;28.10;52.40;;;;;;5023726;28;20563;-75
2021/07/25 04:20:35;;;;;;;7.43;6.73;;;28.10;52.30;;;;;;5023831;28;20511;-75
2021/07/25 04:23:07;;;;;;;7.77;6.77;;;28.10;52.30;;;;;;5024021;28;20414;-76
2021/07/25 04:25:35;;;;;;;7.67;7.03;;;28.10;52.40;;;;;;5023852;28;20475;-75
2021/07/25 04:28:03;;;;;;;7.90;7.20;;;28.10;52.40;;;;;;5024187;28;20486;-76
2021/07/25 04:30:33;;;;;;;7.90;7.10;;;28.00;52.40;;;;;;5023873;28;20428;-75
2021/07/25 04:33:02;;;;;;;7.90;7.20;;;28.00;52.50;;;;;;5023792;28;20498;-75
2021/07/25 04:35:32;;;;;;;7.93;7.00;;;28.00;52.40;;;;;;5023528;28;20477;-75
2021/07/25 04:38:02;;;;;;;8.00;7.20;;;28.00;52.40;;;;;;5024031;28;20534;-75
2021/07/25 04:40:31;;;;;;;8.30;7.40;;;28.00;52.40;;;;;;5023569;28;20496;-75
2021/07/25 04:42:59;;;;;;;8.13;7.33;;;28.00;52.60;;;;;;5023075;28;20451;-75
2021/07/25 04:45:30;;;;;;;10.60;7.63;;;28.00;52.60;;;;;;5023250;28;20784;-75
2021/07/25 04:48:06;;;;;;;8.00;7.30;;;28.00;52.50;;;;;;5023787;28;20428;-75
2021/07/25 04:50:36;;;;;;;8.30;7.50;;;28.00;52.50;;;;;;5023827;28;20431;-75
2021/07/25 04:53:05;;;;;;;8.53;7.73;;;28.00;52.50;;;;;;5023647;28;20449;-75
2021/07/25 04:55:34;;;;;;;8.00;7.30;;;28.00;52.40;;;;;;5023651;28;20530;-75
2021/07/25 04:58:04;;;;;;;7.20;6.50;;;28.00;52.40;;;;;;5023496;28;20447;-75
2021/07/25 05:00:32;;;;;;;6.80;6.20;;;28.00;52.40;;;;;;5023643;28;20493;-75
2021/07/25 05:03:03;;;;;;;8.00;7.30;;;28.00;52.50;;;;;;5023513;28;20524;-75
2021/07/25 05:05:32;;;;;;;7.87;7.17;;;28.00;52.40;;;;;;5024545;28;20464;-75
2021/07/25 05:08:00;;;;;;;7.20;6.60;;;28.00;52.30;;;;;;5027079;28;20450;-75
2021/07/25 05:10:28;;;;;;;7.80;7.10;;;28.00;52.30;;;;;;5027009;28;20530;-75
2021/07/25 05:12:59;;;;;;;7.93;7.03;;;28.00;52.40;;;;;;5026919;28;20439;-75
2021/07/25 05:15:31;;;;;;;7.73;7.03;;;28.10;52.30;;;;;;5027275;28;20438;-75
2021/07/25 05:18:02;;;;;;;7.90;7.10;;;28.10;52.30;;;;;;5027179;28;20439;-75
2021/07/25 05:20:32;;;;;;;8.03;7.27;;;28.00;52.10;;;;;;5027112;28;20501;-75
2021/07/25 05:23:09;;;;;;;7.87;7.10;;;28.00;52.30;;;;;;5026773;28;20447;-75
2021/07/25 05:25:37;;;;;;;11.53;7.33;;;28.10;52.20;;;;;;5026747;28;20563;-75
2021/07/25 05:28:06;;;;;;;7.97;7.17;;;28.10;52.10;;;;;;5026897;28;20443;-76
2021/07/25 05:30:35;;;;;;;8.10;7.20;;;28.10;52.00;;;;;;5027006;28;20526;-76
2021/07/25 05:33:06;;;;;;;8.20;7.40;;;28.10;52.10;;;;;;5026755;28;20446;-76
2021/07/25 05:35:34;;;;;;;7.77;7.07;;;28.10;52.10;;;;;;5026965;28;20410;-76
2021/07/25 05:38:02;;;;;;;8.23;7.50;;;28.10;52.10;;;;;;5026829;28;20443;-76
2021/07/25 05:40:30;;;;;;;9.87;7.83;;;28.10;52.20;;;;;;5026512;28;20443;-75
2021/07/25 05:42:58;;;;;;;8.40;7.50;;;28.10;52.00;;;;;;5026166;28;20436;-76
2021/07/25 05:45:29;;;;;;;10.40;7.60;;;28.10;52.00;;;;;;5026698;28;20442;-75
2021/07/25 05:47:57;;;;;;;8.03;7.33;;;28.20;52.10;;;;;;5026545;28;20533;-75
2021/07/25 05:50:26;;;;;;;8.10;6.90;;;28.20;52.00;;;;;;5026458;28;20406;-74
2021/07/25 05:52:56;;;;;;;8.47;7.67;;;28.10;52.10;;;;;;5026182;28;20451;-74
2021/07/25 05:55:25;;;;;;;10.57;7.47;;;28.20;52.10;;;;;;5026386;28;20493;-74
2021/07/25 05:57:53;;;;;;;8.30;7.50;;;28.10;52.00;;;;;;5026489;28;20422;-74
2021/07/25 06:00:22;;;;;;;8.67;7.97;;;28.10;52.00;;;;;;5026212;28;20414;-73
2021/07/25 06:02:51;;;;;;;8.07;7.37;;;28.10;52.00;;;;;;5026403;28;20491;-73
2021/07/25 06:05:19;;;;;;;8.57;7.73;;;28.20;52.10;;;;;;5026162;28;20443;-73
2021/07/25 06:07:49;;;;;;;11.13;8.40;;;28.20;52.10;;;;;;5026128;28;20455;-73
2021/07/25 06:10:17;;;;;;;9.53;8.53;;;28.20;52.10;;;;;;5026025;28;20486;-74
2021/07/25 06:12:44;;;;;;;8.90;8.00;;;28.10;52.00;;;;;;5025803;28;20518;-74
2021/07/25 06:15:12;;;;;;;9.00;8.17;;;28.10;52.10;;;;;;5026059;28;20578;-74
2021/07/25 06:17:40;;;;;;;8.40;7.60;;;28.20;52.30;;;;;;5025935;28;20527;-74
2021/07/25 06:20:09;;;;;;;10.00;7.87;;;28.20;52.20;;;;;;5025664;28;20447;-74
2021/07/25 06:22:38;;;;;;;10.93;7.80;;;28.20;52.10;;;;;;5025793;28;20439;-74
2021/07/25 06:25:08;;;;;;;12.03;7.70;;;28.20;52.10;;;;;;5025679;28;20526;-74
2021/07/25 06:27:36;;;;;;;10.33;8.67;;;28.20;52.10;;;;;;5025496;28;20450;-74
2021/07/25 06:30:04;;;;;;;8.50;7.70;;;28.20;52.00;;;;;;5025667;28;20450;-74
2021/07/25 06:32:32;;;;;;;8.83;7.90;;;28.30;52.10;;;;;;5025137;28;20433;-74
2021/07/25 06:35:00;;;;;;;8.00;7.23;;;28.30;52.00;;;;;;5025777;28;20428;-74
2021/07/25 06:37:28;;;;;;;9.17;8.27;;;28.30;52.00;;;;;;5025734;28;20484;-74
2021/07/25 06:39:56;;;;;;;9.00;8.10;;;28.30;52.10;;;;;;5025775;28;20543;-74
2021/07/25 06:42:25;;;;;;;11.83;8.43;;;28.30;52.10;;;;;;5025245;28;20439;-74
2021/07/25 06:44:53;;;;;;;8.63;7.80;;;28.30;52.20;;;;;;5025624;28;20527;-74
2021/07/25 06:47:21;;;;;;;9.13;8.33;;;28.30;52.10;;;;;;5025323;28;20483;-74
2021/07/25 06:49:49;;;;;;;9.90;8.87;;;28.30;52.10;;;;;;5025447;28;20458;-74
2021/07/25 06:52:17;;;;;;;11.43;9.07;;;28.30;52.20;;;;;;5025278;28;20439;-74
2021/07/25 06:54:44;;;;;;;11.80;8.57;;;28.40;52.20;;;;;;5025437;28;20443;-74
2021/07/25 06:57:12;;;;;;;11.00;8.33;;;28.40;52.00;;;;;;5024887;28;20448;-74
2021/07/25 06:59:41;;;;;;;9.80;8.80;;;28.40;52.10;;;;;;5025336;28;20478;-75
2021/07/25 07:02:09;;;;;;;10.63;9.50;;;28.50;52.10;;;;;;5025036;28;20490;-74
2021/07/25 07:04:37;;;;;;;9.97;8.97;;;28.50;52.00;;;;;;5024890;28;20451;-74
2021/07/25 07:07:05;;;;;;;14.70;9.50;;;28.50;52.00;;;;;;5024885;28;20482;-74
2021/07/25 07:09:33;;;;;;;10.63;9.53;;;28.50;52.00;;;;;;5025320;28;20550;-74
2021/07/25 07:12:01;;;;;;;10.23;9.23;;;28.60;51.90;;;;;;5025094;28;20443;-74
2021/07/25 07:14:29;;;;;;;9.93;8.47;;;28.60;51.90;;;;;;5024496;28;20459;-74
2021/07/25 07:16:58;;;;;;;10.10;9.10;;;28.60;52.00;;;;;;5025204;28;20486;-74
2021/07/25 07:19:26;;;;;;;11.10;9.57;;;28.60;52.10;;;;;;5025483;28;20478;-74
2021/07/25 07:21:54;;;;;;;10.80;9.70;;;28.70;52.00;;;;;;5024664;28;20449;-74
2021/07/25 07:24:22;;;;;;;11.13;9.83;;;28.80;51.90;;;;;;5024790;28;20439;-74
2021/07/25 07:26:49;;;;;;;11.70;10.50;;;28.80;51.90;;;;;;5024623;28;20513;-75
2021/07/25 07:29:17;;;;;;;10.60;9.10;;;28.80;51.90;;;;;;5024405;28;20517;-74
2021/07/25 07:31:45;;;;;;;12.10;9.97;;;28.80;51.80;;;;;;5024371;28;20535;-74
2021/07/25 07:34:14;;;;;;;11.00;9.90;;;28.90;51.90;;;;;;5024927;28;20505;-74
2021/07/25 07:36:42;;;;;;;13.40;10.43;;;28.90;51.80;;;;;;5024928;28;20551;-74
2021/07/25 07:39:10;;;;;;;15.00;11.03;;;28.90;51.90;;;;;;5024753;28;20448;-74
2021/07/25 07:41:38;;;;;;;11.03;9.90;;;29.00;51.90;;;;;;5024890;28;20461;-74
2021/07/25 07:44:05;;;;;;;11.50;10.40;;;29.00;51.90;;;;;;5024400;28;20542;-74
2021/07/25 07:46:33;;;;;;;11.77;10.60;;;29.00;51.80;;;;;;5024444;28;20582;-74
2021/07/25 07:49:01;;;;;;;11.33;10.23;;;29.00;51.90;;;;;;5024239;28;20475;-74
2021/07/25 07:51:30;;;;;;;11.63;10.43;;;29.10;51.90;;;;;;5024041;28;20543;-74
2021/07/25 07:53:58;;;;;;;12.23;11.07;;;29.10;51.80;;;;;;5024073;28;20435;-74
2021/07/25 07:56:27;;;;;;;13.13;10.67;;;29.20;52.00;;;;;;5024196;28;20431;-74
2021/07/25 07:58:54;;;;;;;12.33;11.07;;;29.20;51.60;;;;;;5024722;28;20557;-74
2021/07/25 08:01:22;;;;;;;13.60;12.03;;;29.30;51.70;;;;;;5024148;28;20439;-74
2021/07/25 08:03:50;;;;;;;13.60;11.77;;;29.30;51.80;;;;;;5024368;28;20440;-74
2021/07/25 08:06:18;;;;;;;12.77;11.57;;;29.40;51.80;;;;;;5024093;28;20475;-74
2021/07/25 08:08:47;;;;;;;14.47;12.37;;;29.50;51.60;;;;;;5024514;28;20477;-74
2021/07/25 08:11:15;;;;;;;14.03;12.57;;;29.60;51.70;;;;;;5023994;28;20439;-74
2021/07/25 08:13:44;;;;;;;15.23;12.37;;;29.70;51.80;;;;;;5023947;28;20443;-74
2021/07/25 08:16:11;;;;;;;13.37;11.93;;;29.80;51.60;;;;;;5024347;28;20523;-74
2021/07/25 08:18:39;;;;;;;18.90;12.10;;;29.80;51.70;;;;;;5023985;28;20444;-74
2021/07/25 08:21:07;;;;;;;13.10;11.80;;;29.80;51.70;;;;;;5024133;28;20526;-74
2021/07/25 08:23:35;;;;;;;15.73;12.93;;;29.80;51.60;;;;;;5023807;28;20414;-74
2021/07/25 08:26:04;;;;;;;14.00;12.67;;;29.90;51.70;;;;;;5024267;28;20526;-74
2021/07/25 08:28:32;;;;;;;14.97;12.13;;;30.00;51.60;;;;;;5023834;28;20547;-74
2021/07/25 08:31:00;;;;;;;13.60;12.37;;;30.20;51.60;;;;;;5024273;28;20444;-74
2021/07/25 08:33:28;;;;;;;13.17;11.87;;;30.10;51.20;;;;;;5023710;28;20449;-74
2021/07/25 08:35:56;;;;;;;15.93;12.13;;;30.10;51.40;;;;;;5024060;28;20446;-74
2021/07/25 08:38:24;;;;;;;15.77;12.40;;;30.20;51.30;;;;;;5024355;28;20505;-74
2021/07/25 08:40:59;;;;;;;13.30;11.90;;;30.30;51.50;;;;;;5025672;28;20469;-74
2021/07/25 08:43:28;;;;;;;14.03;12.57;;;30.40;51.30;;;;;;5027531;28;20442;-74
2021/07/25 08:45:56;;;;;;;16.30;12.87;;;30.40;50.90;;;;;;5028058;28;20545;-75
2021/07/25 08:48:24;;;;;;;14.73;13.23;;;30.50;51.10;;;;;;5027544;28;20483;-75
2021/07/25 08:50:58;;;;;;;15.90;12.70;;;30.50;50.90;;;;;;5027271;28;20439;-74
2021/07/25 08:53:26;;;;;;;13.23;11.93;;;30.60;51.00;;;;;;5027955;28;20466;-74
2021/07/25 08:55:54;;;;;;;13.80;12.20;;;30.70;51.10;;;;;;5027469;28;20512;-74
2021/07/25 08:58:23;;;;;;;18.23;13.40;;;30.80;50.90;;;;;;5027423;28;20619;-74
2021/07/25 09:00:53;;;;;;;18.10;13.17;;;30.90;51.50;;;;;;5027414;28;20469;-74
2021/07/25 09:03:21;;;;;;;14.57;13.07;;;30.90;50.40;;;;;;5027181;28;20482;-75
2021/07/25 09:05:49;;;;;;;14.00;12.60;;;31.00;50.80;;;;;;5027562;28;20447;-74
2021/07/25 09:08:18;;;;;;;15.90;13.80;;;31.00;51.20;;;;;;5027620;28;20471;-74
2021/07/25 09:10:46;;;;;;;14.67;13.13;;;31.10;50.60;;;;;;5027168;28;20543;-75
2021/07/25 09:13:14;;;;;;;15.13;13.27;;;31.10;50.50;;;;;;5026455;28;20497;-74
2021/07/25 09:15:41;;;;;;;17.33;14.33;;;31.10;50.50;;;;;;5027076;28;20501;-74
2021/07/25 09:18:11;;;;;;;14.60;13.10;;;31.10;50.50;;;;;;5027124;28;20474;-74
2021/07/25 09:20:41;;;;;;;16.50;14.83;;;31.10;50.50;;;;;;5027214;28;20495;-74
2021/07/25 09:23:11;;;;;;;14.50;13.10;;;31.10;50.70;;;;;;5026892;28;20447;-74
2021/07/25 09:25:47;;;;;;;15.00;13.30;;;31.30;50.70;;;;;;5026991;28;20558;-74
2021/07/25 09:28:24;;;;;;;14.10;12.73;;;31.40;50.40;;;;;;5027278;28;20505;-75
2021/07/25 09:30:53;;;;;;;15.70;13.30;;;31.50;50.50;;;;;;5026947;28;20533;-74
2021/07/25 09:33:32;;;;;;;14.43;12.93;;;31.60;50.30;;;;;;5026983;28;20482;-74
2021/07/25 09:36:05;;;;;;;15.63;12.47;;;31.80;50.00;;;;;;5027171;28;20459;-75
2021/07/25 09:38:32;;;;;;;14.07;12.60;;;31.90;49.80;;;;;;5027142;28;20428;-75
2021/07/25 09:41:01;;;;;;;14.33;12.80;;;32.10;49.70;;;;;;5026999;28;20534;-75
2021/07/25 09:43:29;;;;;;;15.20;13.70;;;32.20;49.50;;;;;;5027132;28;20527;-75
2021/07/25 09:45:59;;;;;;;14.80;13.30;;;32.30;49.00;;;;;;5026838;28;20534;-75
2021/07/25 09:48:30;;;;;;;15.83;13.63;;;32.40;49.10;;;;;;5026828;28;20477;-76
2021/07/25 09:51:19;;;;;;;13.07;11.83;;;32.50;49.00;;;;;;5026044;28;20455;-76
2021/07/25 09:53:47;;;;;;;16.30;13.70;;;32.40;49.30;;;;;;5026213;28;20463;-75
2021/07/25 09:56:16;;;;;;;13.60;12.33;;;32.40;48.80;;;;;;5026073;28;20538;-75
2021/07/25 09:58:44;;;;;;;13.80;12.50;;;32.40;48.80;;;;;;5025976;28;20440;-75
2021/07/25 10:01:14;;;;;;;13.33;12.03;;;32.40;49.00;;;;;;5026037;28;20477;-76
2021/07/25 10:03:44;;;;;;;12.33;11.27;;;32.50;48.90;;;;;;5026229;28;20432;-75
2021/07/25 10:06:24;;;;;;;15.80;13.30;;;32.50;48.60;;;;;;5026109;28;20471;-75
2021/07/25 10:09:10;;;;;;;14.53;12.60;;;32.60;48.80;;;;;;5026791;28;20475;-75
2021/07/25 10:11:39;;;;;;;13.60;12.30;;;32.60;48.70;;;;;;5025592;28;20522;-75
2021/07/25 10:14:07;;;;;;;14.93;13.53;;;32.60;48.80;;;;;;5026067;28;20523;-75
2021/07/25 10:16:35;;;;;;;18.13;13.40;;;32.80;48.70;;;;;;5026279;28;20447;-75
2021/07/25 10:19:08;;;;;;;13.30;11.93;;;32.90;48.30;;;;;;5026279;28;20439;-75
2021/07/25 10:21:36;;;;;;;13.87;12.40;;;32.90;48.20;;;;;;5025952;28;20442;-75
2021/07/25 10:24:06;;;;;;;13.07;11.80;;;33.00;48.10;;;;;;5025782;28;20438;-75
2021/07/25 10:26:34;;;;;;;16.57;13.30;;;33.20;48.00;;;;;;5026265;28;20454;-75
2021/07/25 10:29:01;;;;;;;13.40;12.20;;;33.30;47.70;;;;;;5025703;28;20481;-75
2021/07/25 10:31:29;;;;;;;13.30;11.90;;;33.20;47.40;;;;;;5025346;28;20439;-75
2021/07/25 10:33:57;;;;;;;12.80;11.60;;;33.20;47.60;;;;;;5025878;28;20493;-75
2021/07/25 10:36:27;;;;;;;12.63;11.47;;;33.30;47.60;;;;;;5025182;28;20459;-75
2021/07/25 10:38:54;;;;;;;12.23;11.03;;;33.40;47.70;;;;;;5025741;28;20463;-75
2021/07/25 10:41:24;;;;;;;12.37;11.37;;;33.50;47.30;;;;;;5024967;28;20529;-75
2021/07/25 10:43:52;;;;;;;13.13;11.83;;;33.50;47.40;;;;;;5025695;28;20471;-75
2021/07/25 10:46:21;;;;;;;12.40;11.20;;;33.60;47.50;;;;;;5025572;28;20445;-75
2021/07/25 10:49:16;;;;;;;12.30;11.07;;;33.70;47.30;;;;;;5025044;28;20468;-74
2021/07/25 10:52:02;;;;;;;12.10;10.10;;;33.70;46.90;;;;;;5015684;28;20475;-75
2021/07/25 10:54:33;;;;;;;11.53;10.40;;;33.70;46.90;;;;;;5025566;28;20522;-75
2021/07/25 10:57:02;;;;;;;11.90;10.90;;;33.70;47.00;;;;;;5025184;28;20519;-75
2021/07/25 10:59:44;;;;;;;11.80;10.80;;;33.80;46.80;;;;;;5025081;28;20431;-74
2021/07/25 11:02:17;;;;;;;11.83;10.93;;;33.90;46.90;;;;;;5024690;28;20539;-75
2021/07/25 11:05:05;;;;;;;11.50;10.43;;;33.90;46.60;;;;;;5023850;28;20514;-75
2021/07/25 11:07:36;;;;;;;12.80;10.60;;;33.80;46.70;;;;;;5024443;28;20458;-75
2021/07/25 11:10:11;;;;;;;12.00;10.80;;;33.90;46.70;;;;;;5024758;28;20471;-74
2021/07/25 11:13:16;;;;;;;12.20;10.90;;;34.00;46.70;;;;;;5025076;28;20489;-74
2021/07/25 11:15:45;;;;;;;10.70;9.90;;;34.10;46.60;;;;;;5024593;28;20435;-75
2021/07/25 11:18:28;;;;;;;11.80;10.70;;;34.10;46.50;;;;;;5024691;28;20450;-75
2021/07/25 11:20:58;;;;;;;11.40;10.40;;;34.20;46.20;;;;;;5024403;28;20534;-75
2021/07/25 11:23:35;;;;;;;11.40;9.97;;;34.20;46.10;;;;;;5024456;28;20479;-75
2021/07/25 11:26:49;;;;;;;10.73;9.73;;;34.20;46.20;;;;;;5025486;28;20451;-75
2021/07/25 11:29:18;;;;;;;10.40;9.50;;;34.30;46.10;;;;;;5024753;28;20479;-75
2021/07/25 11:31:47;;;;;;;10.83;9.90;;;34.40;46.00;;;;;;5024708;28;20428;-74
2021/07/25 11:34:25;;;;;;;11.13;10.00;;;34.60;45.90;;;;;;5024454;28;20469;-75
2021/07/25 11:36:54;;;;;;;10.80;9.70;;;34.60;46.30;;;;;;5024454;28;20440;-74
2021/07/25 11:39:23;;;;;;;10.03;9.13;;;34.80;45.60;;;;;;5024314;28;20503;-75
2021/07/25 11:41:51;;;;;;;10.10;9.30;;;34.90;45.30;;;;;;5023683;28;20442;-75
2021/07/25 11:44:25;;;;;;;10.13;9.33;;;35.10;45.20;;;;;;5024294;28;20519;-75
2021/07/25 11:46:53;;;;;;;9.93;9.07;;;35.20;45.00;;;;;;5025004;28;20538;-74
2021/07/25 11:49:22;;;;;;;9.57;8.73;;;35.30;44.80;;;;;;5024578;28;20479;-75
2021/07/25 11:52:09;;;;;;;8.80;8.20;;;35.30;44.40;;;;;;5023786;28;20501;-75
2021/07/25 11:54:38;;;;;;;9.70;9.00;;;35.20;44.40;;;;;;5024449;28;20435;-75
2021/07/25 11:57:07;;;;;;;9.30;8.50;;;35.10;44.50;;;;;;5024035;28;20443;-75
2021/07/25 11:59:36;;;;;;;9.50;8.80;;;35.10;44.70;;;;;;5024439;28;20497;-75
2021/07/25 12:02:04;;;;;;;9.43;8.60;;;35.10;44.60;;;;;;5024045;28;20435;-75
2021/07/25 12:04:34;;;;;;;8.80;8.10;;;35.10;45.00;;;;;;5024308;28;20467;-75
2021/07/25 12:07:11;;;;;;;9.40;8.60;;;35.00;44.90;;;;;;5024508;28;20482;-75
2021/07/25 12:09:41;;;;;;;8.87;8.17;;;35.00;44.90;;;;;;5023960;28;20482;-75
2021/07/25 12:12:11;;;;;;;9.40;8.70;;;34.90;45.10;;;;;;5024165;28;20524;-75
2021/07/25 12:14:40;;;;;;;8.73;8.03;;;35.10;45.00;;;;;;5025306;28;20534;-75
2021/07/25 12:17:08;;;;;;;8.43;7.83;;;35.20;44.80;;;;;;5027835;28;20544;-75
2021/07/25 12:19:44;;;;;;;9.03;8.37;;;35.30;44.40;;;;;;5027919;28;20499;-75
2021/07/25 12:22:14;;;;;;;9.43;8.67;;;35.10;44.50;;;;;;5027457;28;20518;-74
2021/07/25 12:24:45;;;;;;;9.13;8.43;;;35.10;44.60;;;;;;5028043;28;20463;-75
2021/07/25 12:27:28;;;;;;;9.33;8.33;;;35.10;45.00;;;;;;5028099;28;20431;-75
2021/07/25 12:30:10;;;;;;;8.40;7.80;;;35.20;44.80;;;;;;5026463;28;20582;-75
2021/07/25 12:32:38;;;;;;;8.50;7.80;;;35.30;44.60;;;;;;5027795;28;20534;-75
2021/07/25 12:35:21;;;;;;;8.07;7.47;;;35.50;44.40;;;;;;5027910;28;20501;-75
2021/07/25 12:37:55;;;;;;;7.83;7.33;;;35.50;44.00;;;;;;5027841;28;20530;-75
2021/07/25 12:40:26;;;;;;;8.17;7.57;;;35.40;44.00;;;;;;5027407;28;20528;-75
2021/07/25 12:43:05;;;;;;;7.90;7.20;;;35.30;44.10;;;;;;5027387;28;20522;-75
2021/07/25 12:45:51;;;;;;;8.23;7.57;;;35.20;44.50;;;;;;5027617;28;20470;-75
2021/07/25 12:48:36;;;;;;;7.50;7.00;;;35.10;44.80;;;;;;5027581;28;20442;-75
2021/07/25 12:51:32;;;;;;;8.20;7.40;;;35.30;44.60;;;;;;5027010;28;20474;-75
2021/07/25 12:54:04;;;;;;;7.53;6.93;;;35.40;44.40;;;;;;5027461;28;20431;-75